Time;durP1;ratioP1;P1;durP2;ratioP2;P2;SDS_P1;SDS_P2;PMS_P1;PMS_P2;Temp;Humidity;BMP_temperature;BMP_pressure;BME280_temperature;BME280_humidity;BME280_pressure;Samples;Min_cycle;Max_cycle;Signal;HPM_P1;HPM_P2
2021/12/08 00:00:53;;;;;;;9.60;4.82;;;;;;;;;;5051071;28;20047;-29
2021/12/08 00:03:19;;;;;;;10.45;5.35;;;;;;;;;;5069492;28;20076;-28
2021/12/08 00:05:46;;;;;;;8.30;4.68;;;;;;;;;;5068177;28;20052;-28
2021/12/08 00:08:13;;;;;;;8.90;4.78;;;;;;;;;;5069634;28;20393;-29
2021/12/08 00:13:00;;;;;;;11.48;5.72;;;;;;;;;;5060694;28;20040;-31
2021/12/08 00:13:34;;;;;;;9.73;5.40;;;;;;;;;;5068993;28;20044;-30
2021/12/08 00:16:02;;;;;;;10.23;4.88;;;;;;;;;;5068907;28;20055;-27
2021/12/08 00:18:29;;;;;;;7.35;4.65;;;;;;;;;;5070431;28;20125;-27
2021/12/08 00:20:58;;;;;;;7.70;4.75;;;;;;;;;;5052390;28;20489;-27
2021/12/08 00:23:25;;;;;;;8.30;4.05;;;;;;;;;;5052345;28;20055;-28
2021/12/08 00:25:52;;;;;;;7.68;4.60;;;;;;;;;;5070042;28;20047;-30
2021/12/08 00:28:18;;;;;;;11.77;5.40;;;;;;;;;;5052374;28;20454;-28
2021/12/08 00:30:46;;;;;;;10.32;4.93;;;;;;;;;;5070132;28;20032;-29
2021/12/08 00:33:13;;;;;;;7.07;4.60;;;;;;;;;;5070088;28;20512;-29
2021/12/08 00:35:40;;;;;;;9.77;4.65;;;;;;;;;;5070287;28;20123;-28
2021/12/08 00:38:10;;;;;;;8.20;4.35;;;;;;;;;;5070022;28;20079;-28
2021/12/08 00:40:36;;;;;;;8.68;5.18;;;;;;;;;;5070354;28;20494;-28
2021/12/08 00:43:03;;;;;;;6.82;4.03;;;;;;;;;;5070152;28;20037;-29
2021/12/08 00:45:29;;;;;;;13.57;5.43;;;;;;;;;;5070051;28;20494;-30
2021/12/08 00:47:57;;;;;;;9.82;5.45;;;;;;;;;;5070287;28;20439;-29
2021/12/08 00:50:24;;;;;;;8.95;4.20;;;;;;;;;;5070511;28;20032;-29
2021/12/08 00:52:51;;;;;;;8.88;4.95;;;;;;;;;;5069984;28;20151;-28
2021/12/08 00:55:17;;;;;;;10.55;5.57;;;;;;;;;;5070332;28;20119;-28
2021/12/08 00:57:44;;;;;;;11.85;4.60;;;;;;;;;;5070245;28;20515;-29
2021/12/08 01:00:15;;;;;;;7.95;4.57;;;;;;;;;;5070000;28;20044;-27
2021/12/08 01:02:41;;;;;;;6.50;4.95;;;;;;;;;;5051574;28;20044;-28
2021/12/08 01:05:09;;;;;;;10.68;4.68;;;;;;;;;;5070161;28;20551;-31
2021/12/08 01:07:35;;;;;;;7.07;4.53;;;;;;;;;;5070391;28;20067;-28
2021/12/08 01:10:01;;;;;;;8.25;4.82;;;;;;;;;;5070214;28;20420;-28
2021/12/08 01:12:27;;;;;;;10.63;4.70;;;;;;;;;;5069765;28;20072;-28
2021/12/08 01:14:53;;;;;;;6.97;4.40;;;;;;;;;;5070894;28;20098;-30
2021/12/08 01:17:19;;;;;;;7.35;4.50;;;;;;;;;;5055587;28;20436;-28
2021/12/08 01:19:45;;;;;;;9.52;5.20;;;;;;;;;;5073778;28;20041;-31
2021/12/08 01:22:11;;;;;;;7.13;4.50;;;;;;;;;;5073186;28;20083;-28
2021/12/08 01:24:38;;;;;;;5.50;4.22;;;;;;;;;;5055696;28;20481;-29
2021/12/08 01:27:04;;;;;;;6.15;4.45;;;;;;;;;;5073652;28;20044;-28
2021/12/08 01:29:30;;;;;;;9.48;4.10;;;;;;;;;;5073410;28;20036;-30
2021/12/08 01:31:56;;;;;;;6.80;4.65;;;;;;;;;;5073056;28;20036;-30
2021/12/08 01:34:22;;;;;;;10.02;4.25;;;;;;;;;;5070974;28;20048;-30
2021/12/08 01:36:48;;;;;;;8.82;3.92;;;;;;;;;;5071429;28;20055;-31
2021/12/08 01:39:14;;;;;;;8.13;4.40;;;;;;;;;;5072022;28;20120;-31
2021/12/08 01:41:40;;;;;;;9.65;4.70;;;;;;;;;;5070755;28;20040;-31
2021/12/08 01:46:52;;;;;;;8.15;4.07;;;;;;;;;;5070260;28;20060;-30
2021/12/08 01:49:18;;;;;;;9.10;4.50;;;;;;;;;;5063479;28;20478;-30
2021/12/08 01:51:44;;;;;;;6.00;3.25;;;;;;;;;;5071215;28;20032;-31
2021/12/08 01:54:11;;;;;;;8.63;4.78;;;;;;;;;;5061638;28;20045;-30
2021/12/08 01:56:37;;;;;;;7.45;4.50;;;;;;;;;;5070952;28;20098;-31
2021/12/08 01:59:05;;;;;;;9.18;4.30;;;;;;;;;;5070583;28;20127;-30
2021/12/08 02:01:32;;;;;;;7.70;4.22;;;;;;;;;;5052216;28;20033;-31
2021/12/08 02:04:03;;;;;;;8.20;4.05;;;;;;;;;;5070823;28;20037;-29
2021/12/08 02:06:30;;;;;;;7.75;4.05;;;;;;;;;;5068675;28;20040;-30
2021/12/08 02:08:56;;;;;;;8.05;4.80;;;;;;;;;;5071694;28;20040;-30
2021/12/08 02:11:23;;;;;;;7.50;4.32;;;;;;;;;;5070705;28;20037;-27
2021/12/08 02:13:52;;;;;;;6.15;4.10;;;;;;;;;;5070988;28;20048;-28
2021/12/08 02:16:18;;;;;;;7.97;4.15;;;;;;;;;;5070620;28;20052;-28
2021/12/08 02:18:49;;;;;;;4.20;3.63;;;;;;;;;;5071438;28;20142;-28
2021/12/08 02:21:24;;;;;;;4.47;3.83;;;;;;;;;;5070532;28;20041;-28
2021/12/08 02:23:50;;;;;;;6.93;4.07;;;;;;;;;;5070628;28;20040;-28
2021/12/08 02:26:17;;;;;;;6.07;4.57;;;;;;;;;;5061932;28;20428;-36
2021/12/08 02:28:44;;;;;;;5.45;4.20;;;;;;;;;;5070867;28;20040;-28
2021/12/08 02:31:13;;;;;;;6.10;4.25;;;;;;;;;;5052530;28;20037;-28
2021/12/08 02:47:43;;;;;;;8.88;4.72;;;;;;;;;;5063710;28;20045;-29
2021/12/08 02:50:10;;;;;;;8.05;4.82;;;;;;;;;;5070403;28;20382;-29
2021/12/08 02:52:36;;;;;;;7.68;4.95;;;;;;;;;;5069642;28;20123;-28
2021/12/08 02:55:06;;;;;;;8.07;5.13;;;;;;;;;;5070298;28;20469;-29
2021/12/08 02:57:32;;;;;;;8.68;5.18;;;;;;;;;;5070296;28;20094;-30
2021/12/08 02:59:58;;;;;;;6.32;5.30;;;;;;;;;;5069888;28;20091;-28
2021/12/08 03:02:24;;;;;;;7.30;5.63;;;;;;;;;;5070202;28;20036;-29
2021/12/08 03:04:50;;;;;;;9.38;5.35;;;;;;;;;;5070100;28;20398;-30
2021/12/08 03:07:16;;;;;;;6.60;5.53;;;;;;;;;;5069384;28;20036;-30
2021/12/08 03:09:43;;;;;;;8.30;5.07;;;;;;;;;;5052319;28;20056;-29
2021/12/08 03:12:09;;;;;;;7.75;5.65;;;;;;;;;;5069043;28;20049;-28
2021/12/08 03:14:35;;;;;;;6.55;5.45;;;;;;;;;;5051797;28;20049;-28
2021/12/08 03:17:04;;;;;;;8.27;6.13;;;;;;;;;;5069975;28;20082;-29
2021/12/08 03:19:31;;;;;;;8.70;5.50;;;;;;;;;;5069124;28;20123;-28
2021/12/08 03:21:57;;;;;;;9.95;5.88;;;;;;;;;;5070549;28;20032;-33
2021/12/08 03:24:29;;;;;;;6.40;5.72;;;;;;;;;;5070547;28;20487;-32
2021/12/08 03:29:38;;;;;;;;;;;;;;;;;;5070241;28;20044;-29
2021/12/08 03:32:08;;;;;;;10.57;5.57;;;;;;;;;;5062499;28;19959;-29
2021/12/08 03:34:38;;;;;;;8.02;6.20;;;;;;;;;;5069264;28;20481;-32
2021/12/08 03:37:08;;;;;;;9.98;5.93;;;;;;;;;;5061343;28;20531;-29
2021/12/08 03:39:34;;;;;;;9.32;5.40;;;;;;;;;;5069357;28;20036;-28
2021/12/08 03:42:01;;;;;;;10.95;6.20;;;;;;;;;;5069994;28;20301;-28
2021/12/08 03:44:27;;;;;;;7.38;6.47;;;;;;;;;;5069733;28;20150;-29
2021/12/08 03:47:00;;;;;;;7.25;5.55;;;;;;;;;;5071150;28;20551;-28
2021/12/08 03:49:27;;;;;;;9.73;6.72;;;;;;;;;;5071457;28;20040;-30
2021/12/08 03:51:53;;;;;;;9.93;7.18;;;;;;;;;;5071291;28;20508;-28
2021/12/08 03:54:19;;;;;;;9.88;7.20;;;;;;;;;;5052805;28;20508;-30
2021/12/08 03:56:45;;;;;;;10.48;7.75;;;;;;;;;;5071225;28;20041;-30
2021/12/08 03:59:12;;;;;;;11.50;8.40;;;;;;;;;;5070599;28;20401;-28
2021/12/08 04:01:38;;;;;;;10.38;9.00;;;;;;;;;;5070462;28;20087;-30
2021/12/08 04:04:07;;;;;;;11.23;9.13;;;;;;;;;;5052507;28;20051;-28
2021/12/08 04:06:46;;;;;;;11.60;8.70;;;;;;;;;;5070452;28;20044;-35
2021/12/08 04:09:47;;;;;;;12.00;9.15;;;;;;;;;;5070932;28;20040;-29
2021/12/08 04:12:04;;;;;;;11.27;8.35;;;;;;;;;;5068072;28;20048;-29
2021/12/08 04:14:32;;;;;;;11.75;9.48;;;;;;;;;;5070110;28;20055;-29
2021/12/08 04:17:01;;;;;;;11.02;8.25;;;;;;;;;;5070577;28;20397;-30
2021/12/08 04:19:28;;;;;;;11.10;9.75;;;;;;;;;;5052034;28;20045;-29
2021/12/08 04:21:55;;;;;;;11.93;8.45;;;;;;;;;;5070226;28;20083;-29
2021/12/08 04:24:22;;;;;;;12.65;9.48;;;;;;;;;;5070288;28;20036;-29
2021/12/08 04:26:50;;;;;;;9.88;8.88;;;;;;;;;;5052060;28;20041;-29
2021/12/08 04:29:18;;;;;;;11.85;9.68;;;;;;;;;;5070563;28;20033;-29
2021/12/08 04:31:44;;;;;;;12.32;8.60;;;;;;;;;;5070452;28;20501;-30
2021/12/08 04:34:18;;;;;;;12.48;9.57;;;;;;;;;;5052286;28;20440;-28
2021/12/08 04:36:48;;;;;;;10.65;8.90;;;;;;;;;;5070445;28;20719;-30
2021/12/08 04:39:28;;;;;;;12.60;8.75;;;;;;;;;;5070343;28;20056;-30
2021/12/08 04:42:01;;;;;;;10.60;9.27;;;;;;;;;;5070388;28;20053;-29
2021/12/08 04:44:36;;;;;;;10.23;8.38;;;;;;;;;;5070166;28;20044;-29
2021/12/08 05:00:25;;;;;;;9.98;8.80;;;;;;;;;;5055767;28;20147;-30
2021/12/08 05:03:21;;;;;;;10.77;7.82;;;;;;;;;;5055775;28;20047;-29
2021/12/08 05:08:42;;;;;;;10.38;7.88;;;;;;;;;;5052165;28;20068;-29
2021/12/08 05:11:29;;;;;;;10.00;7.90;;;;;;;;;;5073876;28;20068;-30
2021/12/08 05:13:57;;;;;;;11.48;7.70;;;;;;;;;;5073402;28;20040;-35
2021/12/08 05:16:24;;;;;;;9.90;7.63;;;;;;;;;;5055720;28;20144;-29
2021/12/08 05:18:52;;;;;;;9.35;7.47;;;;;;;;;;5073659;28;20119;-29
2021/12/08 05:21:23;;;;;;;12.23;7.50;;;;;;;;;;5073418;28;20042;-30
2021/12/08 05:23:55;;;;;;;9.73;7.10;;;;;;;;;;5072849;28;20058;-29
2021/12/08 05:26:24;;;;;;;9.35;7.10;;;;;;;;;;5071156;28;20068;-30
2021/12/08 05:28:51;;;;;;;8.57;7.22;;;;;;;;;;5073247;28;20045;-31
2021/12/08 05:31:19;;;;;;;10.32;7.00;;;;;;;;;;5069832;28;20402;-32
2021/12/08 05:33:46;;;;;;;12.32;7.63;;;;;;;;;;5064193;28;20033;-32
2021/12/08 05:36:13;;;;;;;8.38;7.22;;;;;;;;;;5075427;28;20048;-33
2021/12/08 05:38:40;;;;;;;7.97;6.72;;;;;;;;;;5071855;28;20425;-33
2021/12/08 05:41:10;;;;;;;12.50;7.10;;;;;;;;;;5070977;28;20344;-31
2021/12/08 05:43:36;;;;;;;8.63;7.15;;;;;;;;;;5071163;28;20505;-32
2021/12/08 05:46:03;;;;;;;11.23;7.90;;;;;;;;;;5071764;28;20032;-32
2021/12/08 05:48:32;;;;;;;9.65;6.50;;;;;;;;;;5060403;28;20097;-33
2021/12/08 05:51:01;;;;;;;10.77;6.88;;;;;;;;;;5070948;28;20032;-32
2021/12/08 05:53:27;;;;;;;9.90;6.72;;;;;;;;;;5070963;28;20044;-31
2021/12/08 05:55:55;;;;;;;7.88;6.03;;;;;;;;;;5070865;28;20047;-31
2021/12/08 05:58:22;;;;;;;7.50;5.88;;;;;;;;;;5071128;28;20043;-31
2021/12/08 06:00:51;;;;;;;9.00;6.30;;;;;;;;;;5070430;28;20044;-31
2021/12/08 06:03:18;;;;;;;9.10;5.97;;;;;;;;;;5071350;28;20049;-32
2021/12/08 06:05:46;;;;;;;7.32;5.40;;;;;;;;;;5070780;28;20040;-32
2021/12/08 06:08:12;;;;;;;7.25;5.68;;;;;;;;;;5072156;28;20045;-35
2021/12/08 06:10:39;;;;;;;9.63;5.85;;;;;;;;;;5052768;28;20047;-33
2021/12/08 06:13:06;;;;;;;5.82;4.82;;;;;;;;;;5071480;28;20072;-32
2021/12/08 06:15:33;;;;;;;10.45;6.00;;;;;;;;;;5071082;28;20084;-32
2021/12/08 06:17:59;;;;;;;8.60;6.00;;;;;;;;;;5066222;28;20064;-28
2021/12/08 06:20:25;;;;;;;9.50;5.90;;;;;;;;;;5072546;28;20033;-34
2021/12/08 06:22:53;;;;;;;8.48;5.97;;;;;;;;;;5070534;28;20488;-34
2021/12/08 06:25:19;;;;;;;9.82;5.78;;;;;;;;;;5071783;28;20063;-38
2021/12/08 06:27:46;;;;;;;7.18;5.05;;;;;;;;;;5070768;28;20061;-28
2021/12/08 06:30:16;;;;;;;8.23;5.65;;;;;;;;;;5063886;28;20500;-33
2021/12/08 06:32:42;;;;;;;8.07;5.18;;;;;;;;;;5073199;28;20036;-33
2021/12/08 06:35:13;;;;;;;8.50;4.90;;;;;;;;;;5070274;28;20048;-34
2021/12/08 06:37:40;;;;;;;9.68;5.30;;;;;;;;;;5069860;28;20036;-35
2021/12/08 06:40:16;;;;;;;8.85;5.18;;;;;;;;;;5070776;28;20036;-37
2021/12/08 06:42:43;;;;;;;11.85;4.72;;;;;;;;;;5078532;28;20037;-35
2021/12/08 06:45:14;;;;;;;6.72;4.60;;;;;;;;;;5072429;28;20043;-33
2021/12/08 06:47:40;;;;;;;7.65;4.32;;;;;;;;;;5072076;28;20032;-33
2021/12/08 06:50:19;;;;;;;8.00;4.53;;;;;;;;;;5072110;28;20119;-32
2021/12/08 06:52:45;;;;;;;6.82;4.38;;;;;;;;;;5069331;28;20052;-35
2021/12/08 06:55:14;;;;;;;6.50;3.97;;;;;;;;;;5069362;28;20489;-35
2021/12/08 06:57:45;;;;;;;7.88;3.88;;;;;;;;;;5069596;28;20067;-35
2021/12/08 07:00:23;;;;;;;7.30;3.72;;;;;;;;;;5071712;28;20036;-32
2021/12/08 07:03:19;;;;;;;8.10;4.00;;;;;;;;;;5047652;28;20048;-33
2021/12/08 07:08:26;;;;;;;9.77;4.13;;;;;;;;;;5079342;28;20032;-33
2021/12/08 07:10:57;;;;;;;8.18;4.47;;;;;;;;;;5083259;28;20107;-34
2021/12/08 07:13:27;;;;;;;9.63;5.30;;;;;;;;;;5075318;28;20070;-34
2021/12/08 07:16:13;;;;;;;7.43;3.95;;;;;;;;;;5073375;28;20071;-35
2021/12/08 07:18:50;;;;;;;9.38;4.38;;;;;;;;;;5078663;28;20036;-35
2021/12/08 07:21:19;;;;;;;8.00;4.13;;;;;;;;;;5053234;28;20047;-34
2021/12/08 07:23:54;;;;;;;5.18;3.70;;;;;;;;;;5069767;28;20468;-35
2021/12/08 07:26:33;;;;;;;6.85;4.63;;;;;;;;;;5070749;28;20386;-35
2021/12/08 07:29:00;;;;;;;9.07;4.15;;;;;;;;;;5070301;28;20035;-32
2021/12/08 07:31:38;;;;;;;9.55;4.20;;;;;;;;;;5070246;28;20048;-34
2021/12/08 07:34:08;;;;;;;;;;;;;;;;;;5070664;28;20040;-36
2021/12/08 07:36:39;;;;;;;6.50;3.55;;;;;;;;;;5070022;28;19916;-35
2021/12/08 07:39:07;;;;;;;8.13;3.60;;;;;;;;;;5058761;28;20033;-33
2021/12/08 07:41:34;;;;;;;6.80;3.10;;;;;;;;;;5056869;28;20827;-38
2021/12/08 07:44:20;;;;;;;7.38;3.63;;;;;;;;;;5068847;28;20037;-33
2021/12/08 07:46:52;;;;;;;5.60;3.00;;;;;;;;;;5067040;28;20044;-34
2021/12/08 07:49:24;;;;;;;7.25;3.20;;;;;;;;;;5069710;28;20112;-33
2021/12/08 07:52:33;;;;;;;7.00;2.50;;;;;;;;;;5069315;28;20067;-33
2021/12/08 07:55:22;;;;;;;5.45;2.80;;;;;;;;;;4999054;28;20050;-34
2021/12/08 07:57:48;;;;;;;6.78;2.90;;;;;;;;;;5002892;28;20042;-35
2021/12/08 08:00:28;;;;;;;5.90;2.83;;;;;;;;;;5007431;28;20463;-35
2021/12/08 08:02:58;;;;;;;8.02;2.85;;;;;;;;;;4999778;28;20594;-33
2021/12/08 08:05:28;;;;;;;5.43;3.75;;;;;;;;;;5010250;28;20100;-34
2021/12/08 08:07:56;;;;;;;6.95;3.25;;;;;;;;;;5071207;28;20087;-34
2021/12/08 08:10:27;;;;;;;7.00;2.95;;;;;;;;;;5067799;28;20134;-32
2021/12/08 08:13:13;;;;;;;6.20;3.03;;;;;;;;;;5073543;28;20424;-34
2021/12/08 08:15:48;;;;;;;6.07;2.92;;;;;;;;;;5073634;28;20040;-33
2021/12/08 08:18:37;;;;;;;5.32;2.80;;;;;;;;;;5074795;28;20093;-35
2021/12/08 08:21:06;;;;;;;6.75;2.40;;;;;;;;;;5072241;28;20089;-35
2021/12/08 08:23:33;;;;;;;7.10;3.08;;;;;;;;;;5075201;28;20043;-32
2021/12/08 08:26:00;;;;;;;6.05;2.22;;;;;;;;;;5075130;28;20040;-34
2021/12/08 08:28:33;;;;;;;6.47;2.80;;;;;;;;;;5081414;28;20124;-34
2021/12/08 08:31:03;;;;;;;6.78;2.20;;;;;;;;;;5075816;28;20047;-34
2021/12/08 08:33:39;;;;;;;3.80;2.38;;;;;;;;;;5074954;28;20037;-33
2021/12/08 08:36:08;;;;;;;6.40;2.00;;;;;;;;;;5075375;28;20040;-35
2021/12/08 08:38:36;;;;;;;9.10;2.53;;;;;;;;;;5075173;28;20409;-36
2021/12/08 08:41:10;;;;;;;7.68;2.60;;;;;;;;;;5075139;28;20071;-33
2021/12/08 08:43:37;;;;;;;6.78;2.70;;;;;;;;;;5061142;28;20174;-34
2021/12/08 08:46:08;;;;;;;6.45;2.38;;;;;;;;;;5059859;28;20036;-32
2021/12/08 08:48:40;;;;;;;7.63;2.72;;;;;;;;;;5076259;28;20146;-30
2021/12/08 08:51:14;;;;;;;5.75;2.42;;;;;;;;;;5070235;28;20032;-30
2021/12/08 08:53:43;;;;;;;7.20;2.50;;;;;;;;;;5069079;28;20397;-31
2021/12/08 08:56:11;;;;;;;4.63;1.85;;;;;;;;;;5071343;28;20046;-29
2021/12/08 08:58:43;;;;;;;10.55;2.95;;;;;;;;;;5070881;28;20302;-29
2021/12/08 09:01:14;;;;;;;4.85;2.75;;;;;;;;;;5073978;28;20047;-30
2021/12/08 09:03:45;;;;;;;10.75;2.50;;;;;;;;;;5072692;28;20456;-33
2021/12/08 09:06:25;;;;;;;3.67;2.03;;;;;;;;;;5067130;28;20683;-29
2021/12/08 09:08:51;;;;;;;9.52;3.15;;;;;;;;;;5054752;28;20122;-30
2021/12/08 09:11:48;;;;;;;8.32;3.03;;;;;;;;;;5078815;28;20039;-30
2021/12/08 09:14:16;;;;;;;8.05;2.90;;;;;;;;;;5059736;28;20051;-31
2021/12/08 09:16:45;;;;;;;8.88;2.58;;;;;;;;;;5073948;28;20095;-30
2021/12/08 09:19:18;;;;;;;6.13;2.30;;;;;;;;;;5073216;28;20098;-30
2021/12/08 09:22:00;;;;;;;12.23;2.50;;;;;;;;;;5074493;28;20040;-30
2021/12/08 09:24:44;;;;;;;9.30;2.80;;;;;;;;;;5073187;28;20055;-31
2021/12/08 09:27:14;;;;;;;10.07;3.00;;;;;;;;;;5073295;28;20123;-30
2021/12/08 09:29:55;;;;;;;7.07;2.90;;;;;;;;;;5073477;28;20291;-30
2021/12/08 09:32:24;;;;;;;6.72;2.83;;;;;;;;;;5055334;28;20490;-30
2021/12/08 09:34:59;;;;;;;8.35;2.88;;;;;;;;;;5077604;28;20051;-30
2021/12/08 09:37:27;;;;;;;7.28;3.10;;;;;;;;;;5062444;28;20115;-30
2021/12/08 09:39:56;;;;;;;6.95;2.75;;;;;;;;;;5074632;28;20548;-31
2021/12/08 09:42:33;;;;;;;9.95;3.20;;;;;;;;;;5085609;28;20036;-30
2021/12/08 09:45:12;;;;;;;7.18;3.20;;;;;;;;;;5070287;28;20037;-30
2021/12/08 09:47:41;;;;;;;5.63;2.60;;;;;;;;;;5074298;28;20093;-30
2021/12/08 09:50:12;;;;;;;11.57;3.55;;;;;;;;;;5084577;28;20032;-31
2021/12/08 09:52:41;;;;;;;6.32;2.40;;;;;;;;;;5076911;28;20115;-29
2021/12/08 09:55:12;;;;;;;8.10;3.00;;;;;;;;;;5080214;28;20036;-30
2021/12/08 09:57:41;;;;;;;9.95;2.80;;;;;;;;;;5078649;28;20043;-30
2021/12/08 10:00:15;;;;;;;7.50;3.20;;;;;;;;;;5078000;28;20082;-30
2021/12/08 10:02:48;;;;;;;4.40;2.47;;;;;;;;;;5074175;28;20051;-32
2021/12/08 10:05:16;;;;;;;7.25;2.70;;;;;;;;;;5056872;28;20036;-30
2021/12/08 10:07:48;;;;;;;8.38;2.78;;;;;;;;;;5070550;28;20478;-31
2021/12/08 10:10:15;;;;;;;10.30;3.40;;;;;;;;;;5070901;28;20119;-30
2021/12/08 10:12:45;;;;;;;7.40;3.10;;;;;;;;;;5070559;28;20048;-30
2021/12/08 10:15:16;;;;;;;7.75;3.70;;;;;;;;;;5073680;28;20109;-30
2021/12/08 10:17:42;;;;;;;12.45;3.30;;;;;;;;;;5076809;28;20047;-30
2021/12/08 10:20:34;;;;;;;10.30;3.45;;;;;;;;;;5071273;28;20653;-29
2021/12/08 10:23:15;;;;;;;5.82;2.80;;;;;;;;;;5075140;28;20506;-30
2021/12/08 10:25:43;;;;;;;5.90;3.17;;;;;;;;;;5074814;28;20044;-31
2021/12/08 10:28:31;;;;;;;8.73;4.13;;;;;;;;;;5084854;28;20118;-30
2021/12/08 10:31:13;;;;;;;11.20;4.35;;;;;;;;;;5072531;28;20405;-28
2021/12/08 10:34:11;;;;;;;9.55;3.42;;;;;;;;;;5073905;28;20037;-30
2021/12/08 10:36:47;;;;;;;8.13;3.10;;;;;;;;;;5072717;28;20044;-30
2021/12/08 10:39:13;;;;;;;6.75;2.80;;;;;;;;;;5073022;28;20048;-30
2021/12/08 10:42:08;;;;;;;5.50;2.90;;;;;;;;;;5070684;28;20047;-30
2021/12/08 10:44:44;;;;;;;6.53;2.80;;;;;;;;;;5058667;28;20123;-30
2021/12/08 10:47:11;;;;;;;7.68;3.20;;;;;;;;;;5071708;28;20486;-28
2021/12/08 10:54:52;;;;;;;8.25;3.28;;;;;;;;;;5072124;28;20175;-32
2021/12/08 10:57:33;;;;;;;8.77;2.67;;;;;;;;;;5072285;28;20040;-31
2021/12/08 11:00:20;;;;;;;5.28;2.55;;;;;;;;;;5072151;28;20044;-29
2021/12/08 11:02:57;;;;;;;8.02;2.90;;;;;;;;;;5071584;28;20048;-31
2021/12/08 11:05:27;;;;;;;5.20;2.88;;;;;;;;;;5054187;28;20036;-30
2021/12/08 11:08:08;;;;;;;11.60;3.20;;;;;;;;;;5071949;28;20032;-29
2021/12/08 11:10:56;;;;;;;6.70;3.10;;;;;;;;;;5071878;28;20072;-28
2021/12/08 11:13:33;;;;;;;9.93;2.60;;;;;;;;;;5071487;28;20049;-31
2021/12/08 11:16:05;;;;;;;4.53;3.17;;;;;;;;;;5071864;28;20041;-32
2021/12/08 11:18:39;;;;;;;4.95;2.67;;;;;;;;;;5071334;28;20044;-31
2021/12/08 11:21:07;;;;;;;9.65;3.33;;;;;;;;;;5071090;28;20040;-38
2021/12/08 11:23:45;;;;;;;5.22;2.90;;;;;;;;;;5076912;28;20480;-36
2021/12/08 11:26:17;;;;;;;5.72;3.55;;;;;;;;;;5068641;28;20048;-35
2021/12/08 11:28:57;;;;;;;6.28;3.50;;;;;;;;;;5050346;28;20040;-30
2021/12/08 11:31:27;;;;;;;5.43;3.22;;;;;;;;;;5070289;28;20118;-36
2021/12/08 11:34:01;;;;;;;8.55;3.50;;;;;;;;;;5081944;28;20169;-33
2021/12/08 11:36:29;;;;;;;5.40;2.92;;;;;;;;;;5080591;28;20036;-34
2021/12/08 11:38:58;;;;;;;6.78;3.47;;;;;;;;;;5070514;28;20456;-35
2021/12/08 11:41:36;;;;;;;7.53;2.78;;;;;;;;;;5071792;28;20095;-34
2021/12/08 11:44:26;;;;;;;7.78;3.40;;;;;;;;;;5069923;28;20036;-38
2021/12/08 11:47:03;;;;;;;8.90;2.72;;;;;;;;;;5060881;28;20056;-29
2021/12/08 11:49:31;;;;;;;5.88;2.78;;;;;;;;;;5070511;28;20065;-31
2021/12/08 11:52:12;;;;;;;5.93;2.60;;;;;;;;;;5068400;28;20099;-36
2021/12/08 11:54:48;;;;;;;5.60;2.55;;;;;;;;;;5062652;28;20490;-33
2021/12/08 11:57:19;;;;;;;8.00;2.67;;;;;;;;;;5064509;28;20044;-35
2021/12/08 11:59:54;;;;;;;6.35;2.72;;;;;;;;;;5077040;28;20067;-35
2021/12/08 12:02:26;;;;;;;8.00;3.30;;;;;;;;;;5068492;28;20049;-33
2021/12/08 12:04:53;;;;;;;6.68;3.22;;;;;;;;;;5068702;28;20048;-33
2021/12/08 12:07:19;;;;;;;8.00;3.20;;;;;;;;;;5074696;28;20032;-36
2021/12/08 12:09:46;;;;;;;6.20;3.05;;;;;;;;;;5066726;28;20064;-34
2021/12/08 12:12:15;;;;;;;8.48;3.42;;;;;;;;;;5069243;28;20806;-34
2021/12/08 12:14:42;;;;;;;7.90;4.05;;;;;;;;;;5067456;28;20573;-34
2021/12/08 12:17:08;;;;;;;6.75;3.13;;;;;;;;;;5068753;28;20036;-30
2021/12/08 12:19:38;;;;;;;9.18;3.80;;;;;;;;;;5051320;28;20524;-29
2021/12/08 12:22:13;;;;;;;6.00;2.80;;;;;;;;;;5069609;28;20048;-33
2021/12/08 12:24:54;;;;;;;8.05;3.25;;;;;;;;;;5063972;28;20113;-33
2021/12/08 12:27:20;;;;;;;6.45;2.78;;;;;;;;;;5074029;28;20039;-33
2021/12/08 12:29:51;;;;;;;10.25;3.00;;;;;;;;;;5068453;28;20119;-32
2021/12/08 12:32:26;;;;;;;5.75;2.75;;;;;;;;;;5053010;28;20136;-32
2021/12/08 12:35:07;;;;;;;7.57;2.97;;;;;;;;;;5075388;28;20510;-31
2021/12/08 12:37:53;;;;;;;6.32;3.40;;;;;;;;;;5077153;28;20036;-34
2021/12/08 12:40:31;;;;;;;5.75;3.05;;;;;;;;;;5076022;28;20041;-35
2021/12/08 12:42:58;;;;;;;3.78;2.38;;;;;;;;;;5074297;28;20044;-33
2021/12/08 12:45:25;;;;;;;6.78;2.90;;;;;;;;;;5068814;28;20111;-36
2021/12/08 12:48:10;;;;;;;7.82;3.28;;;;;;;;;;5069142;28;20451;-34
2021/12/08 12:50:55;;;;;;;5.13;3.28;;;;;;;;;;5068526;28;20036;-32
2021/12/08 12:53:34;;;;;;;7.45;4.45;;;;;;;;;;5073448;28;20049;-34
2021/12/08 12:56:01;;;;;;;5.43;2.97;;;;;;;;;;5068942;28;20044;-35
2021/12/08 12:58:40;;;;;;;9.75;3.80;;;;;;;;;;5069455;28;20174;-33
2021/12/08 13:01:15;;;;;;;9.63;3.13;;;;;;;;;;5069993;28;20040;-34
2021/12/08 13:03:48;;;;;;;6.55;3.50;;;;;;;;;;5068624;28;20049;-35
2021/12/08 13:06:16;;;;;;;6.97;4.20;;;;;;;;;;5068857;28;20397;-34
2021/12/08 13:08:44;;;;;;;10.00;4.30;;;;;;;;;;5069171;28;20033;-33
2021/12/08 13:11:30;;;;;;;11.90;3.20;;;;;;;;;;5070069;28;20029;-36
2021/12/08 13:13:59;;;;;;;9.05;4.45;;;;;;;;;;5073747;28;20050;-37
2021/12/08 13:16:25;;;;;;;9.38;4.50;;;;;;;;;;5075131;28;20047;-33
2021/12/08 13:19:01;;;;;;;7.38;4.13;;;;;;;;;;5072178;28;20032;-32
2021/12/08 13:21:46;;;;;;;3.85;3.42;;;;;;;;;;5070708;28;20036;-32
2021/12/08 13:24:31;;;;;;;6.07;3.58;;;;;;;;;;5052886;28;20041;-34
2021/12/08 13:27:02;;;;;;;6.50;3.63;;;;;;;;;;5074191;28;20103;-33
2021/12/08 13:29:34;;;;;;;7.60;3.75;;;;;;;;;;5053953;28;20043;-34
2021/12/08 13:32:10;;;;;;;9.15;3.78;;;;;;;;;;5071559;28;20123;-32
2021/12/08 13:34:37;;;;;;;6.00;3.13;;;;;;;;;;5072233;28;20472;-35
2021/12/08 13:37:18;;;;;;;7.07;2.95;;;;;;;;;;5071316;28;20123;-34
2021/12/08 13:39:45;;;;;;;4.78;2.40;;;;;;;;;;5071560;28;20043;-35
2021/12/08 13:42:36;;;;;;;5.20;3.03;;;;;;;;;;5071464;28;20048;-35
2021/12/08 13:45:05;;;;;;;5.75;2.50;;;;;;;;;;5071193;28;20102;-34
2021/12/08 13:47:42;;;;;;;4.10;2.60;;;;;;;;;;5073289;28;20386;-35
2021/12/08 13:50:16;;;;;;;4.90;2.40;;;;;;;;;;5080279;28;20127;-34
2021/12/08 13:53:08;;;;;;;6.63;2.47;;;;;;;;;;5070827;28;20044;-34
2021/12/08 13:55:53;;;;;;;7.35;2.70;;;;;;;;;;5071406;28;20080;-37
2021/12/08 13:58:22;;;;;;;6.30;2.80;;;;;;;;;;5071767;28;20058;-32
2021/12/08 14:00:55;;;;;;;7.38;2.58;;;;;;;;;;5074930;28;20036;-34
2021/12/08 14:03:25;;;;;;;7.53;2.63;;;;;;;;;;5081031;28;20508;-33
2021/12/08 14:06:00;;;;;;;6.55;2.47;;;;;;;;;;5074087;28;20090;-33
2021/12/08 14:08:38;;;;;;;6.13;2.40;;;;;;;;;;5070961;28;20396;-35
2021/12/08 14:11:15;;;;;;;16.77;6.00;;;;;;;;;;5077871;28;20040;-35
2021/12/08 14:13:45;;;;;;;10.23;3.92;;;;;;;;;;5072543;28;20047;-35
2021/12/08 14:16:16;;;;;;;5.00;2.67;;;;;;;;;;5073727;28;20043;-37
2021/12/08 14:18:43;;;;;;;11.57;3.60;;;;;;;;;;5072848;28;20031;-34
2021/12/08 14:21:33;;;;;;;5.40;2.83;;;;;;;;;;5072846;28;20119;-34
2021/12/08 14:24:08;;;;;;;6.32;3.10;;;;;;;;;;5070524;28;20091;-34
2021/12/08 14:26:35;;;;;;;9.68;3.33;;;;;;;;;;5071262;28;20040;-33
2021/12/08 14:29:07;;;;;;;5.63;2.60;;;;;;;;;;5070915;28;20035;-34
2021/12/08 14:31:36;;;;;;;6.10;2.75;;;;;;;;;;5070767;28;20135;-33
2021/12/08 14:34:07;;;;;;;5.93;2.72;;;;;;;;;;5069181;28;20098;-34
2021/12/08 14:36:38;;;;;;;11.20;2.92;;;;;;;;;;5070675;28;20480;-34
2021/12/08 14:39:24;;;;;;;6.78;3.20;;;;;;;;;;5068077;28;20063;-34
2021/12/08 14:41:56;;;;;;;9.52;3.38;;;;;;;;;;5067577;28;20120;-33
2021/12/08 14:44:25;;;;;;;6.13;3.17;;;;;;;;;;5070041;28;20258;-37
2021/12/08 14:47:01;;;;;;;5.80;3.33;;;;;;;;;;5070800;28;20036;-33
2021/12/08 14:49:31;;;;;;;15.85;8.82;;;;;;;;;;5061302;28;20039;-34
2021/12/08 14:52:02;;;;;;;14.85;7.35;;;;;;;;;;5066396;28;20047;-34
2021/12/08 14:54:30;;;;;;;6.40;3.30;;;;;;;;;;5064982;28;20219;-34
2021/12/08 14:57:21;;;;;;;7.30;2.90;;;;;;;;;;5066171;28;20120;-33
2021/12/08 14:59:52;;;;;;;7.22;3.22;;;;;;;;;;5063444;28;20080;-34
2021/12/08 15:02:38;;;;;;;6.50;3.47;;;;;;;;;;5066219;28;20043;-35
2021/12/08 15:05:06;;;;;;;4.38;2.88;;;;;;;;;;5031914;28;20083;-36
2021/12/08 15:07:45;;;;;;;5.13;2.50;;;;;;;;;;5067793;28;20043;-34
2021/12/08 15:10:20;;;;;;;6.43;2.80;;;;;;;;;;5067701;28;20064;-33
2021/12/08 15:12:46;;;;;;;9.38;2.90;;;;;;;;;;5067313;28;20044;-35
2021/12/08 15:15:31;;;;;;;6.43;2.80;;;;;;;;;;5066352;28;20119;-35
2021/12/08 15:18:04;;;;;;;7.45;3.03;;;;;;;;;;5069236;28;20051;-36
2021/12/08 15:20:41;;;;;;;7.95;4.35;;;;;;;;;;5075811;28;20033;-34
2021/12/08 15:23:13;;;;;;;11.02;5.50;;;;;;;;;;5059108;28;20033;-33
2021/12/08 15:25:43;;;;;;;9.23;4.65;;;;;;;;;;5070447;28;20543;-34
2021/12/08 15:28:10;;;;;;;7.38;3.53;;;;;;;;;;5065727;28;20478;-33
2021/12/08 15:30:52;;;;;;;6.93;3.80;;;;;;;;;;5075621;28;20043;-34
2021/12/08 15:33:21;;;;;;;12.10;4.07;;;;;;;;;;5070497;28;20040;-33
2021/12/08 15:35:57;;;;;;;8.32;5.50;;;;;;;;;;5072386;28;20448;-33
2021/12/08 15:38:28;;;;;;;8.07;4.63;;;;;;;;;;5063452;28;20056;-32
2021/12/08 15:40:54;;;;;;;6.22;3.85;;;;;;;;;;5068438;28;20039;-33
2021/12/08 15:43:27;;;;;;;8.02;4.40;;;;;;;;;;5068058;28;20801;-34
2021/12/08 15:45:55;;;;;;;6.25;4.03;;;;;;;;;;5070701;28;20032;-34
2021/12/08 15:48:32;;;;;;;8.27;4.60;;;;;;;;;;5070049;28;20136;-34
2021/12/08 15:51:03;;;;;;;6.05;3.63;;;;;;;;;;5077735;28;20039;-33